Time;durP1;ratioP1;P1;durP2;ratioP2;P2;SDS_P1;SDS_P2;PMS_P1;PMS_P2;Temp;Humidity;BMP_temperature;BMP_pressure;BME280_temperature;BME280_humidity;BME280_pressure;Samples;Min_cycle;Max_cycle;Signal;HPM_P1;HPM_P2
2022/06/12 00:00:13;;;;;;;10.25;3.97;;;;;;;15.21;64.41;102218.09;5043751;28;20036;-68
2022/06/12 00:02:40;;;;;;;11.98;4.13;;;;;;;15.17;64.31;102208.81;5016148;28;20033;-67
2022/06/12 00:05:06;;;;;;;11.10;4.30;;;;;;;15.09;64.77;102216.44;5045017;28;20113;-69
2022/06/12 00:07:31;;;;;;;11.82;4.53;;;;;;;15.11;65.07;102222.38;5036003;28;20028;-66
2022/06/12 00:09:57;;;;;;;11.63;4.25;;;;;;;15.07;65.18;102218.31;5043119;28;20032;-66
2022/06/12 00:12:22;;;;;;;10.20;4.10;;;;;;;14.97;65.49;102212.19;5032285;28;20504;-66
2022/06/12 00:14:48;;;;;;;12.77;3.72;;;;;;;14.99;66.09;102218.09;5028008;28;20028;-65
2022/06/12 00:17:13;;;;;;;11.10;3.60;;;;;;;14.88;65.88;102209.31;5035779;28;20036;-66
2022/06/12 00:19:40;;;;;;;9.45;3.60;;;;;;;14.85;66.26;102214.78;5043667;28;20036;-67
2022/06/12 00:22:06;;;;;;;8.37;2.93;;;;;;;14.78;66.48;102208.34;5033759;28;20488;-65
2022/06/12 00:24:32;;;;;;;7.93;2.70;;;;;;;14.77;66.14;102205.88;5043710;28;20043;-66
2022/06/12 00:26:58;;;;;;;9.05;3.22;;;;;;;14.70;67.18;102205.53;5044073;28;20056;-66
2022/06/12 00:29:23;;;;;;;9.75;3.78;;;;;;;14.73;66.57;102210.50;5024482;28;20033;-66
2022/06/12 00:31:58;;;;;;;8.35;3.33;;;;;;;14.70;67.30;102215.97;5045793;28;20051;-68
2022/06/12 00:34:27;;;;;;;9.23;3.60;;;;;;;14.61;66.97;102211.44;5012514;28;20063;-68
2022/06/12 00:36:54;;;;;;;9.73;3.67;;;;;;;14.54;66.98;102202.41;5030340;28;20086;-69
2022/06/12 00:39:19;;;;;;;10.43;3.95;;;;;;;14.53;67.35;102208.59;5022791;28;20659;-67
2022/06/12 00:41:47;;;;;;;10.88;3.70;;;;;;;14.52;67.77;102196.50;5040625;28;20033;-68
2022/06/12 00:44:21;;;;;;;9.57;3.50;;;;;;;14.45;67.43;102208.31;5028286;28;20026;-68
2022/06/12 00:46:57;;;;;;;9.00;3.65;;;;;;;14.31;67.79;102204.97;5025478;28;20032;-67
2022/06/12 00:49:33;;;;;;;9.13;3.70;;;;;;;14.30;68.01;102205.91;5031856;28;20100;-68
2022/06/12 00:52:08;;;;;;;13.27;4.10;;;;;;;14.31;68.15;102210.19;5034267;28;20067;-69
2022/06/12 00:54:34;;;;;;;12.48;4.45;;;;;;;14.31;68.80;102204.97;5041424;28;20025;-66
2022/06/12 00:57:03;;;;;;;10.82;4.03;;;;;;;14.38;67.58;102204.50;5024531;28;20036;-68
2022/06/12 00:59:34;;;;;;;10.30;4.03;;;;;;;14.26;67.93;102204.47;5030241;28;20029;-68
2022/06/12 01:02:00;;;;;;;9.95;4.10;;;;;;;14.29;67.41;102199.03;5038855;28;20033;-67
2022/06/12 01:07:15;;;;;;;12.73;4.07;;;;;;;14.16;67.54;102211.31;5045547;28;20067;-68
2022/06/12 01:09:43;;;;;;;9.95;3.88;;;;;;;14.25;67.31;102200.22;5024385;28;20036;-68
2022/06/12 01:12:16;;;;;;;8.35;3.50;;;;;;;14.23;67.32;102196.91;5041840;28;20116;-68
2022/06/12 01:14:51;;;;;;;8.32;3.53;;;;;;;14.22;67.50;102199.59;5032114;28;20032;-66
2022/06/12 01:17:19;;;;;;;10.05;3.58;;;;;;;14.06;67.12;102168.63;5046001;28;20554;-66
2022/06/12 01:19:50;;;;;;;10.20;3.83;;;;;;;14.22;67.52;102204.81;5019637;28;20025;-68
2022/06/12 01:23:13;;;;;;;8.93;3.40;;;;;;;14.25;67.64;102196.78;5047835;28;20025;-66
2022/06/12 01:25:39;;;;;;;8.30;3.50;;;;;;;14.26;67.67;102191.44;4985667;28;20134;-68
2022/06/12 01:28:29;;;;;;;9.50;3.50;;;;;;;14.27;67.42;102194.88;4986783;28;20038;-68
2022/06/12 01:31:06;;;;;;;9.88;3.70;;;;;;;14.18;67.94;102193.78;4986299;28;20061;-68
2022/06/12 01:33:40;;;;;;;11.95;3.97;;;;;;;14.00;68.68;102200.38;4982314;28;20026;-68
2022/06/12 01:36:23;;;;;;;10.35;3.50;;;;;;;14.00;68.46;102192.56;4986738;28;20488;-66
2022/06/12 01:39:03;;;;;;;12.77;3.92;;;;;;;14.01;69.18;102191.63;4979875;28;20481;-67
2022/06/12 01:42:07;;;;;;;9.20;3.67;;;;;;;14.12;68.96;102189.03;4985363;28;20038;-67
2022/06/12 01:45:08;;;;;;;10.38;4.20;;;;;;;14.02;69.18;102188.06;4985158;28;20060;-68
2022/06/12 01:47:44;;;;;;;8.80;3.13;;;;;;;14.02;69.31;102193.28;4979040;28;20038;-67
2022/06/12 01:50:16;;;;;;;8.45;3.70;;;;;;;13.95;69.58;102192.06;4985379;28;20042;-68
2022/06/12 01:53:03;;;;;;;10.77;3.75;;;;;;;13.96;70.22;102193.72;4982537;28;20049;-67
2022/06/12 01:55:47;;;;;;;11.77;4.03;;;;;;;13.97;70.00;102185.78;4992172;28;20061;-68
2022/06/12 01:58:16;;;;;;;10.05;3.58;;;;;;;13.82;70.81;102187.75;5039636;28;20033;-67
2022/06/12 02:00:56;;;;;;;11.57;3.95;;;;;;;13.74;71.12;102187.47;5041930;28;20029;-68
2022/06/12 02:03:24;;;;;;;12.48;4.00;;;;;;;13.79;70.93;102193.19;5048272;28;20025;-67
2022/06/12 02:06:07;;;;;;;13.70;3.90;;;;;;;13.79;71.16;102193.19;5048420;28;20033;-68
2022/06/12 02:08:47;;;;;;;11.50;3.90;;;;;;;13.83;70.99;102183.38;5035268;28;20368;-68
2022/06/12 02:14:09;;;;;;;11.30;4.18;;;;;;;13.77;70.88;102174.22;5028547;28;20389;-67
2022/06/12 02:16:39;;;;;;;10.98;4.15;;;;;;;13.74;71.26;102184.88;5026070;28;20021;-67
2022/06/12 02:19:11;;;;;;;11.35;3.75;;;;;;;13.68;71.34;102180.09;5048183;28;20029;-69
2022/06/12 02:21:48;;;;;;;12.10;4.28;;;;;;;13.67;71.71;102178.44;5045980;28;20569;-67
2022/06/12 02:24:22;;;;;;;12.30;4.10;;;;;;;13.72;71.49;102185.94;5036107;28;20033;-67
2022/06/12 02:26:57;;;;;;;11.57;3.72;;;;;;;13.65;71.80;102180.34;5041454;28;20071;-68
2022/06/12 02:29:26;;;;;;;14.13;4.40;;;;;;;13.63;71.90;102187.44;5036226;28;20021;-68
2022/06/12 02:31:55;;;;;;;13.45;4.40;;;;;;;13.60;72.10;102185.06;5045004;28;20052;-66
2022/06/12 02:34:27;;;;;;;12.75;4.53;;;;;;;13.71;71.75;102189.50;5046895;28;20028;-68
2022/06/12 02:37:01;;;;;;;12.50;3.83;;;;;;;13.55;72.87;102179.34;5048279;28;20036;-66
2022/06/12 02:39:32;;;;;;;12.02;3.95;;;;;;;13.39;72.86;102184.81;5037598;28;20465;-68
2022/06/12 02:42:18;;;;;;;11.15;4.30;;;;;;;13.45;73.10;102178.34;5045622;28;20493;-68
2022/06/12 02:44:55;;;;;;;14.63;4.35;;;;;;;13.45;73.20;102175.72;5035982;28;20044;-68
2022/06/12 02:47:24;;;;;;;12.75;4.25;;;;;;;13.39;73.16;102184.00;5045809;28;20032;-68
2022/06/12 02:49:51;;;;;;;11.30;4.03;;;;;;;13.38;73.66;102171.91;5037038;28;20477;-66
2022/06/12 02:52:23;;;;;;;13.55;4.65;;;;;;;13.42;73.69;102168.13;5043429;28;20070;-68
2022/06/12 02:55:00;;;;;;;16.08;4.35;;;;;;;13.37;73.86;102172.84;5048114;28;20086;-68
2022/06/12 02:57:35;;;;;;;12.10;4.20;;;;;;;13.34;73.77;102165.25;5045699;28;20036;-68
2022/06/12 03:00:03;;;;;;;12.50;4.43;;;;;;;13.25;74.64;102166.75;5040466;28;20029;-67
2022/06/12 03:02:29;;;;;;;;;;;;;;;13.56;72.29;102167.97;5035143;28;20619;-67
2022/06/12 03:05:19;;;;;;;15.10;4.30;;;;;;;13.41;73.78;102171.66;5045765;28;19920;-67
2022/06/12 03:07:45;;;;;;;14.00;4.25;;;;;;;13.35;74.22;102172.13;5037714;28;20613;-67
2022/06/12 03:10:15;;;;;;;11.18;4.10;;;;;;;13.28;74.73;102167.34;5041649;28;20071;-68
2022/06/12 03:12:41;;;;;;;13.02;4.43;;;;;;;13.28;74.64;102172.56;5039875;28;20025;-68
2022/06/12 03:15:26;;;;;;;10.57;3.90;;;;;;;13.18;74.73;102170.69;5045014;28;20071;-68
2022/06/12 03:17:52;;;;;;;11.00;4.10;;;;;;;13.11;74.89;102164.25;5033835;28;20029;-68
2022/06/12 03:20:18;;;;;;;13.68;4.40;;;;;;;13.11;75.31;102175.50;5045215;28;20496;-67
2022/06/12 03:23:01;;;;;;;11.93;4.32;;;;;;;13.13;75.44;102181.44;5038770;28;20454;-68
2022/06/12 03:25:40;;;;;;;11.88;4.28;;;;;;;13.10;74.76;102179.06;5045925;28;20022;-68
2022/06/12 03:28:26;;;;;;;13.23;4.28;;;;;;;13.10;75.26;102184.25;5044300;28;20028;-68
2022/06/12 03:31:17;;;;;;;13.50;4.60;;;;;;;13.17;75.05;102174.22;5044777;28;20041;-68
2022/06/12 03:33:57;;;;;;;12.25;4.20;;;;;;;13.10;75.56;102173.00;5044551;28;20386;-68
2022/06/12 03:36:28;;;;;;;12.90;4.40;;;;;;;13.08;75.52;102174.91;5039092;28;20078;-67
2022/06/12 03:39:16;;;;;;;12.63;4.60;;;;;;;12.94;75.77;102165.44;5036233;28;20041;-69
2022/06/12 03:42:05;;;;;;;14.40;4.43;;;;;;;13.17;74.62;102180.28;5041573;28;20075;-69
2022/06/12 03:44:46;;;;;;;13.18;4.68;;;;;;;13.08;74.88;102170.53;5035933;28;20065;-68
2022/06/12 03:47:39;;;;;;;11.18;4.05;;;;;;;13.17;75.16;102185.47;5044749;28;20112;-68
2022/06/12 03:50:19;;;;;;;12.20;4.25;;;;;;;13.13;75.31;102178.84;5035017;28;20032;-68
2022/06/12 03:53:05;;;;;;;10.80;4.10;;;;;;;13.13;75.01;102173.63;5041501;28;20066;-68
2022/06/12 03:58:50;;;;;;;;;;;;;;;13.34;73.97;102175.66;5029379;28;20091;-69
2022/06/12 04:01:17;;;;;;;12.93;4.72;;;;;;;13.08;75.26;102170.53;5018369;28;20031;-68
2022/06/12 04:03:45;;;;;;;12.70;4.47;;;;;;;13.05;75.30;102181.16;5046374;28;20035;-69
2022/06/12 04:06:23;;;;;;;9.75;4.22;;;;;;;13.06;76.02;102176.75;5024753;28;20055;-68
2022/06/12 04:08:53;;;;;;;11.70;4.25;;;;;;;13.03;75.45;102188.25;5046496;28;20034;-68
2022/06/12 04:11:22;;;;;;;11.80;4.20;;;;;;;12.97;75.39;102173.88;5043330;28;20108;-67
2022/06/12 04:13:49;;;;;;;12.32;4.15;;;;;;;13.06;75.28;102177.59;5028042;28;20029;-66
2022/06/12 04:16:17;;;;;;;10.18;4.13;;;;;;;13.00;75.93;102183.22;5043533;28;20037;-67
2022/06/12 04:18:43;;;;;;;10.48;4.63;;;;;;;12.83;75.79;102187.00;5044984;28;20040;-67
2022/06/12 04:21:41;;;;;;;13.48;5.00;;;;;;;12.92;75.90;102182.94;5019700;28;20025;-66
2022/06/12 04:24:15;;;;;;;10.93;4.47;;;;;;;12.98;75.22;102178.16;5032573;28;20033;-68
2022/06/12 04:26:49;;;;;;;10.90;4.18;;;;;;;12.91;75.78;102169.09;5042098;28;20031;-68
2022/06/12 04:29:14;;;;;;;13.80;4.50;;;;;;;12.86;75.72;102178.19;5044503;28;20086;-67
2022/06/12 04:31:43;;;;;;;15.50;5.05;;;;;;;12.99;76.37;102182.41;5045725;28;20060;-68
2022/06/12 04:34:11;;;;;;;11.45;4.45;;;;;;;12.93;75.90;102192.41;5016802;28;20103;-68
2022/06/12 04:36:37;;;;;;;12.77;4.85;;;;;;;12.99;75.83;102189.38;5046187;28;20098;-66
2022/06/12 04:39:04;;;;;;;11.60;4.35;;;;;;;13.01;76.24;102190.94;5044209;28;20680;-68
2022/06/12 04:41:35;;;;;;;13.70;4.75;;;;;;;12.92;76.58;102195.97;5044731;28;20120;-67
2022/06/12 04:44:02;;;;;;;13.60;4.78;;;;;;;13.10;76.07;102186.88;5033883;28;20120;-68
2022/06/12 04:46:27;;;;;;;13.30;4.63;;;;;;;12.94;76.94;102194.91;5045768;28;20029;-68
2022/06/12 04:48:56;;;;;;;11.82;4.60;;;;;;;13.01;76.93;102196.13;5042629;28;20062;-67
2022/06/12 04:51:21;;;;;;;13.00;5.20;;;;;;;13.13;76.32;102194.47;5024232;28;20428;-68
2022/06/12 04:53:47;;;;;;;11.20;4.65;;;;;;;13.19;76.54;102191.44;5035339;28;20032;-68
2022/06/12 04:56:15;;;;;;;12.98;4.63;;;;;;;13.18;76.69;102202.78;5046443;28;20029;-67
2022/06/12 04:58:41;;;;;;;13.40;4.63;;;;;;;13.10;76.70;102184.25;5047690;28;20025;-67
2022/06/12 05:01:07;;;;;;;14.18;5.10;;;;;;;13.24;75.99;102191.94;5019422;28;20032;-67
2022/06/12 05:03:33;;;;;;;12.85;5.28;;;;;;;13.23;76.86;102192.06;5049769;28;20040;-68
2022/06/12 05:05:59;;;;;;;13.77;5.03;;;;;;;13.27;75.77;102186.53;5047640;28;20033;-67
2022/06/12 05:08:25;;;;;;;13.65;5.20;;;;;;;13.31;76.26;102191.53;5049787;28;20039;-68
2022/06/12 05:10:50;;;;;;;15.68;5.68;;;;;;;13.40;76.02;102190.88;5039824;28;20039;-68
2022/06/12 05:13:16;;;;;;;15.45;5.40;;;;;;;13.33;76.74;102190.47;5046506;28;20377;-67
2022/06/12 05:15:43;;;;;;;13.45;5.40;;;;;;;13.42;76.71;102183.75;5049458;28;20108;-68
2022/06/12 05:18:13;;;;;;;13.98;5.28;;;;;;;13.41;77.04;102192.53;5045621;28;21016;-67
2022/06/12 05:20:39;;;;;;;15.05;5.88;;;;;;;13.46;76.42;102200.84;5041171;28;20033;-67
2022/06/12 05:23:05;;;;;;;15.18;5.55;;;;;;;13.55;76.66;102187.16;5042567;28;20025;-68
2022/06/12 05:25:31;;;;;;;14.23;5.47;;;;;;;13.57;76.99;102193.09;5039221;28;20085;-68
2022/06/12 05:27:58;;;;;;;14.25;5.38;;;;;;;13.56;77.04;102178.41;5048140;28;20029;-68
2022/06/12 05:30:26;;;;;;;15.30;5.80;;;;;;;13.64;77.76;102194.28;5040011;28;20088;-68
2022/06/12 05:32:55;;;;;;;14.85;5.95;;;;;;;13.73;76.91;102198.84;5048850;28;20055;-67
2022/06/12 05:35:22;;;;;;;15.95;5.97;;;;;;;13.72;76.89;102186.75;5047375;28;20119;-69
2022/06/12 05:37:49;;;;;;;15.68;5.88;;;;;;;13.79;76.82;102187.97;5048295;28;20025;-68
2022/06/12 05:40:19;;;;;;;14.00;5.68;;;;;;;13.88;76.87;102201.28;5048640;28;20615;-68
2022/06/12 05:42:45;;;;;;;12.45;5.95;;;;;;;13.94;76.48;102195.63;5029406;28;20028;-68
2022/06/12 05:45:14;;;;;;;14.27;6.10;;;;;;;13.95;76.46;102197.28;5030868;28;20029;-68
2022/06/12 05:48:03;;;;;;;15.48;6.47;;;;;;;14.09;76.30;102204.91;5041111;28;20040;-68
2022/06/12 05:50:32;;;;;;;13.73;6.10;;;;;;;14.11;76.87;102202.16;5044722;28;20104;-67
2022/06/12 05:52:58;;;;;;;15.48;6.18;;;;;;;14.10;77.38;102203.94;5042125;28;20025;-66
2022/06/12 05:55:24;;;;;;;17.27;6.95;;;;;;;14.20;76.82;102202.31;5031008;28;20032;-70
2022/06/12 05:57:50;;;;;;;16.10;7.03;;;;;;;14.24;77.15;102200.34;5028500;28;20046;-68
2022/06/12 06:00:23;;;;;;;16.77;6.78;;;;;;;14.24;76.98;102195.94;5041802;28;20032;-68
2022/06/12 06:02:49;;;;;;;16.35;7.28;;;;;;;14.33;77.33;102203.06;5044811;28;20139;-67
2022/06/12 06:05:15;;;;;;;16.67;7.40;;;;;;;14.41;77.70;102199.06;5025297;28;20124;-68
2022/06/12 06:07:41;;;;;;;15.38;7.78;;;;;;;14.47;78.18;102198.63;5041503;28;20029;-68
2022/06/12 06:10:11;;;;;;;18.08;7.38;;;;;;;14.60;77.94;102204.56;5030174;28;20064;-68
2022/06/12 06:12:36;;;;;;;15.65;7.57;;;;;;;14.64;77.80;102200.78;5046479;28;20035;-67
2022/06/12 06:15:02;;;;;;;14.85;7.10;;;;;;;14.82;76.97;102211.56;5045261;28;20028;-68
2022/06/12 06:17:28;;;;;;;18.90;7.88;;;;;;;14.77;77.95;102211.09;5038459;28;20032;-68
2022/06/12 06:19:53;;;;;;;21.15;8.63;;;;;;;14.85;77.98;102198.25;5046395;28;20036;-68
2022/06/12 06:22:20;;;;;;;16.92;7.70;;;;;;;14.97;78.20;102214.78;5041980;28;20033;-66
2022/06/12 06:24:46;;;;;;;19.73;8.23;;;;;;;15.08;78.23;102225.22;5041809;28;20426;-68
2022/06/12 06:27:13;;;;;;;19.85;8.18;;;;;;;15.20;76.87;102228.66;5045240;28;20067;-68
2022/06/12 06:29:39;;;;;;;18.80;7.97;;;;;;;15.20;77.12;102216.44;5046974;28;20024;-68
2022/06/12 06:32:07;;;;;;;18.20;7.82;;;;;;;15.36;77.51;102229.91;5045972;28;20101;-68
2022/06/12 06:34:33;;;;;;;;;;;;;;;15.51;76.42;102227.06;5047827;28;20048;-68
2022/06/12 06:36:59;;;;;;;21.75;8.05;;;;;;;15.62;76.95;102224.41;5045207;28;20272;-68
2022/06/12 06:39:24;;;;;;;17.00;7.03;;;;;;;15.60;77.31;102221.91;5045878;28;20477;-67
2022/06/12 06:41:50;;;;;;;21.17;7.53;;;;;;;15.61;77.66;102214.91;5048311;28;20105;-68
2022/06/12 06:46:59;;;;;;;22.33;7.57;;;;;;;15.79;76.04;102226.50;5045528;28;20122;-68
2022/06/12 06:49:24;;;;;;;16.83;7.15;;;;;;;15.79;76.70;102216.06;5045101;28;20481;-68
2022/06/12 06:51:50;;;;;;;21.55;7.30;;;;;;;15.90;76.73;102213.38;5042533;28;20029;-68
2022/06/12 06:54:18;;;;;;;20.42;7.72;;;;;;;16.09;76.46;102232.81;5039964;28;20053;-69
2022/06/12 06:56:43;;;;;;;21.17;7.32;;;;;;;16.11;77.51;102231.72;5024269;28;20039;-67
2022/06/12 06:59:09;;;;;;;20.50;7.25;;;;;;;16.37;75.92;102233.97;5044844;28;20024;-67
2022/06/12 07:01:34;;;;;;;17.30;7.15;;;;;;;16.52;74.88;102229.22;5031844;28;20024;-67
2022/06/12 07:04:01;;;;;;;19.85;7.35;;;;;;;16.56;74.33;102238.47;5035696;28;20457;-66
2022/06/12 07:06:27;;;;;;;18.58;6.70;;;;;;;16.42;74.34;102235.22;5042452;28;20032;-69
2022/06/12 07:08:54;;;;;;;15.88;6.65;;;;;;;16.61;74.44;102238.91;5045727;28;20029;-69
2022/06/12 07:11:20;;;;;;;14.98;5.85;;;;;;;16.70;72.68;102230.28;5044718;28;20025;-68
2022/06/12 07:13:46;;;;;;;18.58;6.43;;;;;;;16.76;72.72;102232.41;5046018;28;20029;-68
2022/06/12 07:16:11;;;;;;;17.25;5.93;;;;;;;16.82;73.04;102242.38;5036491;28;20431;-68
2022/06/12 07:18:37;;;;;;;16.52;5.40;;;;;;;16.90;72.11;102241.69;5033699;28;20087;-69
2022/06/12 07:21:04;;;;;;;16.50;5.25;;;;;;;16.89;70.79;102238.25;5046208;28;20087;-68
2022/06/12 07:23:30;;;;;;;16.05;5.20;;;;;;;16.82;70.96;102226.66;5043442;28;20037;-69
2022/06/12 07:26:07;;;;;;;15.93;5.82;;;;;;;16.96;71.96;102239.38;5035393;28;20029;-68
2022/06/12 07:28:34;;;;;;;14.70;5.38;;;;;;;17.12;71.39;102235.44;5042919;28;20536;-69
2022/06/12 07:31:00;;;;;;;14.15;5.18;;;;;;;17.09;71.37;102248.78;5033564;28;20052;-68
2022/06/12 07:33:26;;;;;;;17.13;6.10;;;;;;;17.19;71.27;102233.94;5039166;28;20029;-68
2022/06/12 07:35:52;;;;;;;12.35;5.68;;;;;;;17.34;71.21;102232.59;5043630;28;20417;-69
2022/06/12 07:38:20;;;;;;;18.08;5.90;;;;;;;17.44;71.96;102233.44;5046181;28;20102;-68
2022/06/12 07:40:48;;;;;;;;;;;;;;;17.66;71.69;102247.25;5044278;28;20029;-68
2022/06/12 07:43:13;;;;;;;14.55;5.32;;;;;;;17.74;70.83;102239.59;5045095;28;20355;-69
2022/06/12 07:45:42;;;;;;;15.80;5.15;;;;;;;17.65;68.64;102250.84;5041664;28;20029;-68
2022/06/12 07:48:08;;;;;;;16.63;5.13;;;;;;;17.66;69.14;102242.88;5044433;28;20032;-68
2022/06/12 07:50:33;;;;;;;17.08;5.30;;;;;;;17.82;67.82;102252.84;5042435;28;20441;-68
2022/06/12 07:52:59;;;;;;;13.45;4.70;;;;;;;17.86;68.79;102243.72;5043279;28;20055;-67
2022/06/12 07:55:25;;;;;;;15.05;4.95;;;;;;;17.83;67.39;102249.25;5042146;28;20029;-68
2022/06/12 07:57:51;;;;;;;15.18;5.32;;;;;;;17.76;69.15;102238.47;5042392;28;20352;-68
2022/06/12 08:00:18;;;;;;;15.23;5.30;;;;;;;17.82;69.00;102247.59;5025744;28;20036;-68
2022/06/12 08:02:46;;;;;;;14.45;5.28;;;;;;;17.87;68.39;102249.81;5039853;28;20040;-68
2022/06/12 08:05:13;;;;;;;18.17;6.03;;;;;;;17.71;68.39;102245.06;5045103;28;20379;-68
2022/06/12 08:07:38;;;;;;;15.20;5.28;;;;;;;17.71;68.85;102240.63;5042350;28;20029;-68
2022/06/12 08:10:05;;;;;;;15.63;5.43;;;;;;;17.87;68.91;102245.38;5044689;28;20037;-68
2022/06/12 08:12:39;;;;;;;15.20;5.28;;;;;;;18.04;69.10;102239.44;5044135;28;20033;-68
2022/06/12 08:15:07;;;;;;;15.02;5.32;;;;;;;17.96;68.25;102244.56;5035760;28;20108;-68
2022/06/12 08:17:32;;;;;;;15.48;5.32;;;;;;;17.97;68.46;102230.47;5039717;28;20138;-69
2022/06/12 08:22:42;;;;;;;13.43;5.10;;;;;;;18.22;67.37;102234.28;5041193;28;20059;-68
2022/06/12 08:25:09;;;;;;;15.23;5.10;;;;;;;18.32;68.16;102242.16;5043573;28;20021;-69
2022/06/12 08:27:34;;;;;;;16.70;5.07;;;;;;;18.45;67.72;102244.47;5040197;28;20060;-68
2022/06/12 08:30:00;;;;;;;15.45;5.00;;;;;;;18.45;67.26;102240.06;5042482;28;20142;-68
2022/06/12 08:32:25;;;;;;;13.55;4.43;;;;;;;18.60;66.63;102239.63;5023029;28;20053;-69
2022/06/12 08:34:56;;;;;;;15.13;5.10;;;;;;;18.55;66.03;102238.25;5041554;28;20021;-68
2022/06/12 08:37:31;;;;;;;14.65;5.22;;;;;;;18.62;66.53;102229.78;5038863;28;20039;-68
2022/06/12 08:39:58;;;;;;;12.32;4.70;;;;;;;18.82;66.80;102244.56;5039368;28;20047;-68
2022/06/12 08:42:36;;;;;;;12.40;4.53;;;;;;;18.94;65.28;102243.38;5040541;28;20473;-68
2022/06/12 08:45:20;;;;;;;12.73;4.20;;;;;;;19.06;65.09;102247.47;5042414;28;20062;-69
2022/06/12 08:48:02;;;;;;;12.57;4.25;;;;;;;19.04;63.94;102236.28;5023508;28;20033;-68
2022/06/12 08:50:54;;;;;;;12.05;4.45;;;;;;;19.20;64.54;102237.44;5021408;28;20035;-68
2022/06/12 08:53:46;;;;;;;13.40;4.38;;;;;;;19.22;64.05;102232.88;5004097;28;20148;-69
2022/06/12 08:56:36;;;;;;;12.15;3.97;;;;;;;19.35;62.38;102228.91;5041133;28;20032;-68
2022/06/12 08:59:07;;;;;;;12.27;3.92;;;;;;;19.40;62.11;102225.81;5027954;28;20029;-68
2022/06/12 09:01:41;;;;;;;12.43;3.90;;;;;;;19.42;62.44;102218.59;5041071;28;20044;-68
2022/06/12 09:04:09;;;;;;;11.85;3.97;;;;;;;19.34;62.58;102202.75;5027452;28;20029;-68
2022/06/12 09:06:56;;;;;;;13.75;4.43;;;;;;;19.55;62.92;102221.69;5042166;28;20426;-68
2022/06/12 09:09:24;;;;;;;11.03;3.97;;;;;;;19.79;61.30;102212.41;5040911;28;20382;-68
2022/06/12 09:12:06;;;;;;;11.90;3.85;;;;;;;19.83;61.84;102217.19;5034704;28;20557;-68
2022/06/12 09:14:56;;;;;;;11.40;3.90;;;;;;;20.01;61.13;102209.28;5042315;28;20048;-68
2022/06/12 09:17:58;;;;;;;13.77;3.75;;;;;;;20.03;60.48;102207.34;5036073;28;20025;-68
2022/06/12 09:20:49;;;;;;;11.57;3.92;;;;;;;20.10;60.48;102213.63;5033925;28;20170;-68
2022/06/12 09:23:30;;;;;;;9.50;3.33;;;;;;;20.04;57.94;102206.34;5037639;28;20053;-69
2022/06/12 09:26:00;;;;;;;13.07;4.10;;;;;;;20.09;59.32;102206.72;5035412;28;20029;-68
2022/06/12 09:28:56;;;;;;;10.82;3.83;;;;;;;20.22;59.32;102216.00;5019872;28;20218;-69
2022/06/12 09:31:51;;;;;;;12.93;4.43;;;;;;;20.27;59.52;102200.56;5034512;28;20049;-68
2022/06/12 09:34:27;;;;;;;9.00;3.45;;;;;;;20.17;59.29;102206.75;5042560;28;20028;-69
2022/06/12 09:40:09;;;;;;;11.10;4.18;;;;;;;20.35;59.14;102211.97;5037238;28;20508;-67
2022/06/12 09:42:57;;;;;;;12.60;3.97;;;;;;;20.40;59.53;102208.88;5040635;28;20403;-68
2022/06/12 09:45:51;;;;;;;9.75;3.53;;;;;;;20.31;56.85;102204.56;5048338;28;20028;-68
2022/06/12 09:48:30;;;;;;;10.35;3.15;;;;;;;20.38;56.12;102208.22;5044161;28;20044;-68
2022/06/12 09:51:05;;;;;;;9.93;3.38;;;;;;;20.04;56.52;102208.97;5044488;28;20551;-69
2022/06/12 09:54:01;;;;;;;11.05;3.22;;;;;;;20.26;58.05;102206.81;5045441;28;20408;-68
2022/06/12 09:56:47;;;;;;;9.80;3.33;;;;;;;20.23;57.82;102213.22;5047531;28;20032;-68
2022/06/12 09:59:31;;;;;;;9.95;3.75;;;;;;;20.32;57.23;102211.47;5046050;28;20074;-68
2022/06/12 10:02:02;;;;;;;11.35;3.45;;;;;;;20.34;57.12;102209.50;5044274;28;20373;-68
2022/06/12 10:04:36;;;;;;;10.63;3.90;;;;;;;20.55;57.52;102206.53;5028734;28;20461;-69
2022/06/12 10:07:10;;;;;;;11.27;4.07;;;;;;;20.46;56.70;102212.72;5030178;28;20073;-68
2022/06/12 10:09:41;;;;;;;11.15;3.70;;;;;;;20.61;58.14;102205.91;5046651;28;20484;-68
2022/06/12 10:12:24;;;;;;;10.27;3.63;;;;;;;20.53;57.64;102198.78;5048113;28;20071;-68
2022/06/12 10:14:56;;;;;;;9.35;3.17;;;;;;;20.86;56.16;102212.09;5044165;28;20040;-68
2022/06/12 10:17:32;;;;;;;13.40;3.25;;;;;;;20.77;55.70;102211.25;5018152;28;20025;-69
2022/06/12 10:20:17;;;;;;;12.27;3.33;;;;;;;20.64;55.28;102213.47;5046220;28;20064;-68
2022/06/12 10:22:47;;;;;;;10.73;3.38;;;;;;;20.43;54.31;102208.56;5023435;28;20054;-69
2022/06/12 10:25:33;;;;;;;9.80;3.17;;;;;;;20.43;55.20;102213.84;5042133;28;20358;-68
2022/06/12 10:28:05;;;;;;;9.45;3.17;;;;;;;20.47;54.99;102209.09;5046493;28;20026;-69
2022/06/12 10:30:40;;;;;;;11.75;3.00;;;;;;;20.57;54.71;102205.38;5045629;28;20040;-68
2022/06/12 10:33:22;;;;;;;10.57;3.10;;;;;;;20.60;55.37;102207.72;5046755;28;20021;-69
2022/06/12 10:35:54;;;;;;;9.73;2.97;;;;;;;20.85;56.08;102206.00;5043903;28;20036;-69
2022/06/12 10:38:22;;;;;;;10.60;3.00;;;;;;;20.77;53.96;102205.16;5044268;28;20028;-68
2022/06/12 10:40:56;;;;;;;8.40;2.85;;;;;;;20.84;54.62;102206.16;5041304;28;20028;-68
2022/06/12 10:43:48;;;;;;;9.27;2.75;;;;;;;21.07;56.04;102196.69;5045247;28;20123;-68
2022/06/12 10:46:14;;;;;;;7.80;2.50;;;;;;;21.03;53.35;102195.34;5042417;28;20052;-68
2022/06/12 10:48:39;;;;;;;8.65;2.95;;;;;;;21.07;52.80;102194.03;5027117;28;20037;-69
2022/06/12 10:51:21;;;;;;;9.95;3.20;;;;;;;21.09;51.64;102205.25;5043963;28;20543;-68
2022/06/12 10:53:46;;;;;;;9.32;2.92;;;;;;;21.09;51.87;102204.44;5046093;28;20353;-68
2022/06/12 10:56:35;;;;;;;9.35;2.92;;;;;;;21.28;54.01;102195.44;5045099;28;20079;-68
2022/06/12 10:59:09;;;;;;;9.50;2.55;;;;;;;21.31;51.65;102197.75;5044956;28;20036;-71
2022/06/12 11:02:03;;;;;;;8.60;2.85;;;;;;;21.26;51.86;102186.81;5043605;28;20025;-69
2022/06/12 11:04:46;;;;;;;9.43;2.65;;;;;;;21.38;50.02;102189.00;5043083;28;20029;-68
2022/06/12 11:07:37;;;;;;;8.60;2.70;;;;;;;21.51;50.93;102193.84;5045378;28;20097;-68
2022/06/12 11:10:38;;;;;;;9.43;2.80;;;;;;;21.63;52.50;102181.13;5043978;28;20032;-68
2022/06/12 11:13:13;;;;;;;7.93;2.38;;;;;;;21.69;51.50;102183.94;5043566;28;20096;-68
2022/06/12 11:15:58;;;;;;;9.75;3.10;;;;;;;21.83;51.38;102176.31;5044838;28;20112;-68
2022/06/12 11:18:42;;;;;;;11.75;3.10;;;;;;;21.87;51.35;102178.47;5044214;28;20120;-68
2022/06/12 11:21:15;;;;;;;7.63;2.72;;;;;;;21.78;50.06;102189.22;5047216;28;20024;-68
2022/06/12 11:23:46;;;;;;;9.65;2.67;;;;;;;21.86;50.67;102186.56;5046318;28;20911;-68
2022/06/12 11:26:17;;;;;;;8.00;2.58;;;;;;;21.67;49.66;102193.81;5046279;28;20033;-69
2022/06/12 11:29:19;;;;;;;7.32;2.58;;;;;;;21.81;50.08;102183.59;5041893;28;20029;-69
2022/06/12 11:32:00;;;;;;;7.35;2.40;;;;;;;21.71;48.60;102184.59;5046546;28;20057;-68
2022/06/12 11:34:50;;;;;;;6.95;2.55;;;;;;;21.97;49.50;102179.13;5040609;28;20028;-67
2022/06/12 11:37:35;;;;;;;7.18;2.13;;;;;;;21.95;49.64;102185.56;5038342;28;20040;-69
2022/06/12 11:40:21;;;;;;;9.60;2.72;;;;;;;21.98;48.97;102182.59;5046680;28;20037;-68
2022/06/12 11:42:51;;;;;;;7.15;2.25;;;;;;;21.96;47.46;102182.78;5044700;28;20021;-68
2022/06/12 11:45:31;;;;;;;8.57;2.40;;;;;;;21.96;47.04;102174.84;5042767;28;20090;-68
2022/06/12 11:48:06;;;;;;;7.70;2.22;;;;;;;22.00;47.52;102177.97;5043861;28;20025;-69
2022/06/12 11:50:58;;;;;;;7.88;2.13;;;;;;;22.13;46.71;102170.38;5041044;28;20064;-69
2022/06/12 11:54:17;;;;;;;9.63;2.10;;;;;;;22.19;47.89;102182.94;5044935;28;20025;-68
2022/06/12 11:56:55;;;;;;;6.55;2.05;;;;;;;21.97;44.27;102178.31;4984666;28;20042;-69
2022/06/12 11:59:29;;;;;;;7.30;2.20;;;;;;;22.06;45.38;102172.00;4981227;28;20038;-69
2022/06/12 12:02:07;;;;;;;5.85;1.60;;;;;;;21.99;46.33;102171.03;4978874;28;20100;-68
2022/06/12 12:04:39;;;;;;;6.57;2.03;;;;;;;22.05;44.81;102162.44;4980495;28;20568;-68